sensor_id;sensor_type;location;lat;lon;timestamp;P1;durP1;ratioP1;P2;durP2;ratioP2
43650;SDS011;29247;50.944;5.382;2023-01-19T00:00:54;11.20;;;6.30;;
43650;SDS011;29247;50.944;5.382;2023-01-19T00:03:22;13.35;;;6.68;;
43650;SDS011;29247;50.944;5.382;2023-01-19T00:05:49;10.85;;;6.07;;
43650;SDS011;29247;50.944;5.382;2023-01-19T00:08:16;12.35;;;6.60;;
43650;SDS011;29247;50.944;5.382;2023-01-19T00:10:45;12.50;;;6.25;;
43650;SDS011;29247;50.944;5.382;2023-01-19T00:13:13;10.30;;;6.05;;
43650;SDS011;29247;50.944;5.382;2023-01-19T00:15:39;12.30;;;6.18;;
43650;SDS011;29247;50.944;5.382;2023-01-19T00:18:05;8.20;;;6.15;;
43650;SDS011;29247;50.944;5.382;2023-01-19T00:20:31;8.10;;;5.75;;
43650;SDS011;29247;50.944;5.382;2023-01-19T00:23:02;9.43;;;5.53;;
43650;SDS011;29247;50.944;5.382;2023-01-19T00:25:28;12.32;;;6.25;;
43650;SDS011;29247;50.944;5.382;2023-01-19T00:27:54;11.77;;;6.30;;
43650;SDS011;29247;50.944;5.382;2023-01-19T00:30:22;10.25;;;6.63;;
43650;SDS011;29247;50.944;5.382;2023-01-19T00:32:53;10.38;;;5.95;;
43650;SDS011;29247;50.944;5.382;2023-01-19T00:35:19;9.70;;;5.85;;
43650;SDS011;29247;50.944;5.382;2023-01-19T00:37:47;11.10;;;5.75;;
43650;SDS011;29247;50.944;5.382;2023-01-19T00:40:15;10.73;;;6.00;;
43650;SDS011;29247;50.944;5.382;2023-01-19T00:42:42;12.57;;;6.60;;
43650;SDS011;29247;50.944;5.382;2023-01-19T00:45:12;11.07;;;6.05;;
43650;SDS011;29247;50.944;5.382;2023-01-19T00:47:42;11.40;;;6.78;;
43650;SDS011;29247;50.944;5.382;2023-01-19T00:52:43;12.15;;;6.50;;
43650;SDS011;29247;50.944;5.382;2023-01-19T00:55:10;14.32;;;6.03;;
43650;SDS011;29247;50.944;5.382;2023-01-19T00:57:37;11.05;;;5.88;;
43650;SDS011;29247;50.944;5.382;2023-01-19T01:00:04;11.98;;;6.38;;
43650;SDS011;29247;50.944;5.382;2023-01-19T01:02:31;10.07;;;6.13;;
43650;SDS011;29247;50.944;5.382;2023-01-19T01:04:57;13.13;;;5.95;;
43650;SDS011;29247;50.944;5.382;2023-01-19T01:07:29;11.55;;;6.50;;
43650;SDS011;29247;50.944;5.382;2023-01-19T01:09:58;9.25;;;6.22;;
43650;SDS011;29247;50.944;5.382;2023-01-19T01:12:23;11.40;;;5.63;;
43650;SDS011;29247;50.944;5.382;2023-01-19T01:14:49;12.70;;;6.30;;
43650;SDS011;29247;50.944;5.382;2023-01-19T01:17:17;11.38;;;6.40;;
43650;SDS011;29247;50.944;5.382;2023-01-19T01:19:48;16.17;;;6.50;;
43650;SDS011;29247;50.944;5.382;2023-01-19T01:22:15;11.63;;;6.30;;
43650;SDS011;29247;50.944;5.382;2023-01-19T01:24:41;12.23;;;5.60;;
43650;SDS011;29247;50.944;5.382;2023-01-19T01:27:06;10.75;;;6.28;;
43650;SDS011;29247;50.944;5.382;2023-01-19T01:29:34;11.98;;;6.50;;
43650;SDS011;29247;50.944;5.382;2023-01-19T01:32:05;16.05;;;6.78;;
43650;SDS011;29247;50.944;5.382;2023-01-19T01:34:31;13.45;;;6.72;;
43650;SDS011;29247;50.944;5.382;2023-01-19T01:36:57;12.93;;;7.00;;
43650;SDS011;29247;50.944;5.382;2023-01-19T01:39:22;13.68;;;7.10;;
43650;SDS011;29247;50.944;5.382;2023-01-19T01:41:48;10.18;;;5.78;;
43650;SDS011;29247;50.944;5.382;2023-01-19T01:52:51;12.80;;;6.80;;
43650;SDS011;29247;50.944;5.382;2023-01-19T01:55:25;11.55;;;6.75;;
43650;SDS011;29247;50.944;5.382;2023-01-19T01:57:53;15.07;;;7.13;;
43650;SDS011;29247;50.944;5.382;2023-01-19T02:00:23;14.63;;;6.93;;
43650;SDS011;29247;50.944;5.382;2023-01-19T02:02:49;11.75;;;6.70;;
43650;SDS011;29247;50.944;5.382;2023-01-19T02:10:51;13.40;;;7.25;;
43650;SDS011;29247;50.944;5.382;2023-01-19T02:13:39;12.80;;;6.82;;
43650;SDS011;29247;50.944;5.382;2023-01-19T02:16:11;16.02;;;6.43;;
43650;SDS011;29247;50.944;5.382;2023-01-19T02:18:43;16.92;;;7.15;;
43650;SDS011;29247;50.944;5.382;2023-01-19T02:21:23;13.75;;;6.90;;
43650;SDS011;29247;50.944;5.382;2023-01-19T02:23:56;11.77;;;6.65;;
43650;SDS011;29247;50.944;5.382;2023-01-19T02:26:45;10.80;;;6.45;;
43650;SDS011;29247;50.944;5.382;2023-01-19T02:29:15;13.88;;;6.80;;
43650;SDS011;29247;50.944;5.382;2023-01-19T02:31:47;14.10;;;7.70;;
43650;SDS011;29247;50.944;5.382;2023-01-19T02:34:16;14.75;;;6.55;;
43650;SDS011;29247;50.944;5.382;2023-01-19T02:39:13;13.43;;;6.72;;
43650;SDS011;29247;50.944;5.382;2023-01-19T02:41:45;12.32;;;6.97;;
43650;SDS011;29247;50.944;5.382;2023-01-19T02:44:15;14.52;;;7.70;;
43650;SDS011;29247;50.944;5.382;2023-01-19T02:46:46;14.57;;;7.97;;
43650;SDS011;29247;50.944;5.382;2023-01-19T02:49:11;14.43;;;7.38;;
43650;SDS011;29247;50.944;5.382;2023-01-19T02:51:37;14.75;;;7.30;;
43650;SDS011;29247;50.944;5.382;2023-01-19T03:04:55;17.13;;;7.57;;
43650;SDS011;29247;50.944;5.382;2023-01-19T03:07:41;13.40;;;6.30;;
43650;SDS011;29247;50.944;5.382;2023-01-19T03:13:07;17.52;;;7.35;;
43650;SDS011;29247;50.944;5.382;2023-01-19T03:15:55;15.95;;;7.15;;
43650;SDS011;29247;50.944;5.382;2023-01-19T03:18:24;15.15;;;7.20;;
43650;SDS011;29247;50.944;5.382;2023-01-19T03:20:59;16.63;;;7.55;;
43650;SDS011;29247;50.944;5.382;2023-01-19T03:23:29;16.37;;;7.20;;
43650;SDS011;29247;50.944;5.382;2023-01-19T03:25:56;15.80;;;6.90;;
43650;SDS011;29247;50.944;5.382;2023-01-19T03:28:29;16.83;;;6.78;;
43650;SDS011;29247;50.944;5.382;2023-01-19T03:31:02;22.73;;;7.85;;
43650;SDS011;29247;50.944;5.382;2023-01-19T03:33:35;18.20;;;7.53;;
43650;SDS011;29247;50.944;5.382;2023-01-19T03:36:04;15.40;;;7.22;;
43650;SDS011;29247;50.944;5.382;2023-01-19T03:38:39;16.33;;;7.32;;
43650;SDS011;29247;50.944;5.382;2023-01-19T03:41:10;21.92;;;8.13;;
43650;SDS011;29247;50.944;5.382;2023-01-19T03:43:40;14.68;;;7.53;;
43650;SDS011;29247;50.944;5.382;2023-01-19T03:46:07;18.20;;;8.25;;
43650;SDS011;29247;50.944;5.382;2023-01-19T03:48:34;15.50;;;7.55;;
43650;SDS011;29247;50.944;5.382;2023-01-19T03:51:08;16.42;;;7.07;;
43650;SDS011;29247;50.944;5.382;2023-01-19T03:53:35;15.85;;;7.13;;
43650;SDS011;29247;50.944;5.382;2023-01-19T03:56:03;15.05;;;7.00;;
43650;SDS011;29247;50.944;5.382;2023-01-19T03:58:30;13.68;;;6.68;;
43650;SDS011;29247;50.944;5.382;2023-01-19T04:00:57;17.20;;;8.23;;
43650;SDS011;29247;50.944;5.382;2023-01-19T04:03:26;15.40;;;7.03;;
43650;SDS011;29247;50.944;5.382;2023-01-19T04:05:55;18.27;;;7.60;;
43650;SDS011;29247;50.944;5.382;2023-01-19T04:08:23;16.10;;;7.43;;
43650;SDS011;29247;50.944;5.382;2023-01-19T04:10:52;19.13;;;6.93;;
43650;SDS011;29247;50.944;5.382;2023-01-19T04:13:20;18.45;;;6.55;;
43650;SDS011;29247;50.944;5.382;2023-01-19T04:15:48;15.18;;;7.13;;
43650;SDS011;29247;50.944;5.382;2023-01-19T04:18:19;13.52;;;6.72;;
43650;SDS011;29247;50.944;5.382;2023-01-19T04:20:47;15.57;;;7.55;;
43650;SDS011;29247;50.944;5.382;2023-01-19T04:23:15;18.23;;;6.95;;
43650;SDS011;29247;50.944;5.382;2023-01-19T04:25:41;16.42;;;6.43;;
43650;SDS011;29247;50.944;5.382;2023-01-19T04:28:06;18.83;;;7.68;;
43650;SDS011;29247;50.944;5.382;2023-01-19T04:30:34;17.90;;;7.50;;
43650;SDS011;29247;50.944;5.382;2023-01-19T04:33:00;17.05;;;7.95;;
43650;SDS011;29247;50.944;5.382;2023-01-19T04:35:26;17.08;;;7.95;;
43650;SDS011;29247;50.944;5.382;2023-01-19T04:37:52;18.60;;;7.93;;
43650;SDS011;29247;50.944;5.382;2023-01-19T04:40:20;14.25;;;7.07;;
43650;SDS011;29247;50.944;5.382;2023-01-19T04:42:46;17.50;;;7.85;;
43650;SDS011;29247;50.944;5.382;2023-01-19T04:45:12;14.35;;;7.80;;
43650;SDS011;29247;50.944;5.382;2023-01-19T04:47:38;17.02;;;7.65;;
43650;SDS011;29247;50.944;5.382;2023-01-19T04:50:09;15.88;;;7.40;;
43650;SDS011;29247;50.944;5.382;2023-01-19T04:52:37;16.83;;;7.15;;
43650;SDS011;29247;50.944;5.382;2023-01-19T04:55:03;18.20;;;7.65;;
43650;SDS011;29247;50.944;5.382;2023-01-19T04:57:30;18.25;;;7.90;;
43650;SDS011;29247;50.944;5.382;2023-01-19T04:59:58;15.35;;;7.22;;
43650;SDS011;29247;50.944;5.382;2023-01-19T05:02:26;20.45;;;7.65;;
43650;SDS011;29247;50.944;5.382;2023-01-19T05:04:52;18.65;;;7.10;;
43650;SDS011;29247;50.944;5.382;2023-01-19T05:07:20;19.70;;;7.75;;
43650;SDS011;29247;50.944;5.382;2023-01-19T05:09:49;14.43;;;6.90;;
43650;SDS011;29247;50.944;5.382;2023-01-19T05:12:15;15.27;;;7.82;;
43650;SDS011;29247;50.944;5.382;2023-01-19T05:14:45;17.85;;;7.85;;
43650;SDS011;29247;50.944;5.382;2023-01-19T05:17:11;16.90;;;7.85;;
43650;SDS011;29247;50.944;5.382;2023-01-19T05:19:36;21.67;;;8.23;;
43650;SDS011;29247;50.944;5.382;2023-01-19T05:22:03;17.70;;;7.70;;
43650;SDS011;29247;50.944;5.382;2023-01-19T05:24:29;18.70;;;7.75;;
43650;SDS011;29247;50.944;5.382;2023-01-19T05:26:55;14.70;;;7.38;;
43650;SDS011;29247;50.944;5.382;2023-01-19T05:29:21;15.25;;;7.47;;
43650;SDS011;29247;50.944;5.382;2023-01-19T05:31:47;16.70;;;7.85;;
43650;SDS011;29247;50.944;5.382;2023-01-19T05:34:13;14.68;;;6.53;;
43650;SDS011;29247;50.944;5.382;2023-01-19T05:36:39;18.77;;;8.35;;
43650;SDS011;29247;50.944;5.382;2023-01-19T05:39:06;18.77;;;8.32;;
43650;SDS011;29247;50.944;5.382;2023-01-19T05:41:32;18.05;;;7.85;;
43650;SDS011;29247;50.944;5.382;2023-01-19T05:44:00;16.85;;;7.13;;
43650;SDS011;29247;50.944;5.382;2023-01-19T05:46:26;17.88;;;7.43;;
43650;SDS011;29247;50.944;5.382;2023-01-19T05:48:51;19.63;;;8.32;;
43650;SDS011;29247;50.944;5.382;2023-01-19T05:51:19;13.68;;;7.18;;
43650;SDS011;29247;50.944;5.382;2023-01-19T05:53:45;17.23;;;8.30;;
43650;SDS011;29247;50.944;5.382;2023-01-19T05:56:10;17.30;;;8.25;;
43650;SDS011;29247;50.944;5.382;2023-01-19T05:58:39;14.40;;;6.32;;
43650;SDS011;29247;50.944;5.382;2023-01-19T06:01:08;15.73;;;8.35;;
43650;SDS011;29247;50.944;5.382;2023-01-19T06:03:35;18.17;;;7.97;;
43650;SDS011;29247;50.944;5.382;2023-01-19T06:06:04;19.98;;;8.27;;
43650;SDS011;29247;50.944;5.382;2023-01-19T06:08:30;16.42;;;7.53;;
43650;SDS011;29247;50.944;5.382;2023-01-19T06:10:56;20.70;;;8.38;;
43650;SDS011;29247;50.944;5.382;2023-01-19T06:13:24;19.40;;;8.13;;
43650;SDS011;29247;50.944;5.382;2023-01-19T06:15:59;17.23;;;8.05;;
43650;SDS011;29247;50.944;5.382;2023-01-19T06:18:26;16.27;;;7.65;;
43650;SDS011;29247;50.944;5.382;2023-01-19T06:20:52;21.33;;;8.05;;
43650;SDS011;29247;50.944;5.382;2023-01-19T06:23:29;17.00;;;5.35;;
43650;SDS011;29247;50.944;5.382;2023-01-19T06:25:59;21.20;;;8.38;;
43650;SDS011;29247;50.944;5.382;2023-01-19T06:28:27;15.60;;;8.52;;
43650;SDS011;29247;50.944;5.382;2023-01-19T06:30:57;18.70;;;9.63;;
43650;SDS011;29247;50.944;5.382;2023-01-19T06:33:23;19.23;;;8.05;;
43650;SDS011;29247;50.944;5.382;2023-01-19T06:35:52;18.98;;;8.40;;
43650;SDS011;29247;50.944;5.382;2023-01-19T06:38:21;18.67;;;8.85;;
43650;SDS011;29247;50.944;5.382;2023-01-19T06:40:55;17.63;;;8.18;;
43650;SDS011;29247;50.944;5.382;2023-01-19T06:43:27;16.45;;;7.68;;
43650;SDS011;29247;50.944;5.382;2023-01-19T06:45:56;14.25;;;7.55;;
43650;SDS011;29247;50.944;5.382;2023-01-19T06:48:27;14.43;;;7.47;;
43650;SDS011;29247;50.944;5.382;2023-01-19T06:50:55;19.77;;;9.35;;
43650;SDS011;29247;50.944;5.382;2023-01-19T06:53:24;17.48;;;7.65;;
43650;SDS011;29247;50.944;5.382;2023-01-19T06:55:57;18.15;;;8.75;;
43650;SDS011;29247;50.944;5.382;2023-01-19T06:58:27;21.52;;;8.23;;
43650;SDS011;29247;50.944;5.382;2023-01-19T07:00:54;20.08;;;9.48;;
43650;SDS011;29247;50.944;5.382;2023-01-19T07:03:24;18.98;;;8.60;;
43650;SDS011;29247;50.944;5.382;2023-01-19T07:05:51;19.40;;;8.43;;
43650;SDS011;29247;50.944;5.382;2023-01-19T07:08:20;20.67;;;8.25;;
43650;SDS011;29247;50.944;5.382;2023-01-19T07:10:49;17.15;;;8.57;;
43650;SDS011;29247;50.944;5.382;2023-01-19T07:13:15;19.42;;;8.90;;
43650;SDS011;29247;50.944;5.382;2023-01-19T07:15:41;18.65;;;8.23;;
43650;SDS011;29247;50.944;5.382;2023-01-19T07:18:07;18.00;;;8.20;;
43650;SDS011;29247;50.944;5.382;2023-01-19T07:20:33;19.02;;;9.38;;
43650;SDS011;29247;50.944;5.382;2023-01-19T07:23:02;21.55;;;9.25;;
43650;SDS011;29247;50.944;5.382;2023-01-19T07:25:28;22.75;;;9.52;;
43650;SDS011;29247;50.944;5.382;2023-01-19T07:28:02;21.63;;;8.85;;
43650;SDS011;29247;50.944;5.382;2023-01-19T07:30:28;19.92;;;8.70;;
43650;SDS011;29247;50.944;5.382;2023-01-19T07:32:54;24.80;;;10.50;;
43650;SDS011;29247;50.944;5.382;2023-01-19T07:35:21;28.30;;;9.73;;
43650;SDS011;29247;50.944;5.382;2023-01-19T07:37:48;20.67;;;10.07;;
43650;SDS011;29247;50.944;5.382;2023-01-19T07:40:17;18.40;;;7.93;;
43650;SDS011;29247;50.944;5.382;2023-01-19T07:42:49;17.00;;;8.30;;
43650;SDS011;29247;50.944;5.382;2023-01-19T07:45:16;23.60;;;8.65;;
43650;SDS011;29247;50.944;5.382;2023-01-19T07:47:44;18.08;;;9.07;;
43650;SDS011;29247;50.944;5.382;2023-01-19T07:50:13;19.10;;;9.18;;
43650;SDS011;29247;50.944;5.382;2023-01-19T07:52:40;15.88;;;8.38;;
43650;SDS011;29247;50.944;5.382;2023-01-19T07:55:06;18.58;;;7.50;;
43650;SDS011;29247;50.944;5.382;2023-01-19T07:57:35;22.73;;;9.05;;
43650;SDS011;29247;50.944;5.382;2023-01-19T08:00:03;17.98;;;7.55;;
43650;SDS011;29247;50.944;5.382;2023-01-19T08:02:30;20.02;;;9.13;;
43650;SDS011;29247;50.944;5.382;2023-01-19T08:04:57;21.63;;;8.15;;
43650;SDS011;29247;50.944;5.382;2023-01-19T08:07:23;23.88;;;8.95;;
43650;SDS011;29247;50.944;5.382;2023-01-19T08:09:49;22.20;;;9.02;;
43650;SDS011;29247;50.944;5.382;2023-01-19T08:12:14;18.85;;;8.77;;
43650;SDS011;29247;50.944;5.382;2023-01-19T08:14:41;27.15;;;8.98;;
43650;SDS011;29247;50.944;5.382;2023-01-19T08:17:09;21.00;;;8.50;;
43650;SDS011;29247;50.944;5.382;2023-01-19T08:19:37;18.88;;;8.90;;
43650;SDS011;29247;50.944;5.382;2023-01-19T08:22:05;23.88;;;8.98;;
43650;SDS011;29247;50.944;5.382;2023-01-19T08:24:31;22.80;;;10.10;;
43650;SDS011;29247;50.944;5.382;2023-01-19T08:26:59;20.60;;;9.18;;
43650;SDS011;29247;50.944;5.382;2023-01-19T08:29:26;23.48;;;8.45;;
43650;SDS011;29247;50.944;5.382;2023-01-19T08:31:55;18.98;;;8.25;;
43650;SDS011;29247;50.944;5.382;2023-01-19T08:34:22;16.98;;;8.90;;
43650;SDS011;29247;50.944;5.382;2023-01-19T08:36:48;19.83;;;10.05;;
43650;SDS011;29247;50.944;5.382;2023-01-19T08:39:17;20.92;;;9.40;;
43650;SDS011;29247;50.944;5.382;2023-01-19T08:41:43;19.83;;;8.77;;
43650;SDS011;29247;50.944;5.382;2023-01-19T08:44:09;25.52;;;9.48;;
43650;SDS011;29247;50.944;5.382;2023-01-19T08:46:37;16.02;;;9.07;;
43650;SDS011;29247;50.944;5.382;2023-01-19T08:49:03;18.13;;;8.85;;
43650;SDS011;29247;50.944;5.382;2023-01-19T08:51:28;19.38;;;9.20;;
43650;SDS011;29247;50.944;5.382;2023-01-19T08:53:54;26.33;;;9.02;;
43650;SDS011;29247;50.944;5.382;2023-01-19T08:56:20;21.17;;;8.73;;
43650;SDS011;29247;50.944;5.382;2023-01-19T08:58:45;17.95;;;7.85;;
43650;SDS011;29247;50.944;5.382;2023-01-19T09:01:14;21.25;;;9.60;;
43650;SDS011;29247;50.944;5.382;2023-01-19T09:03:44;22.95;;;9.30;;
43650;SDS011;29247;50.944;5.382;2023-01-19T09:06:11;23.33;;;10.02;;
43650;SDS011;29247;50.944;5.382;2023-01-19T09:08:41;17.10;;;9.23;;
43650;SDS011;29247;50.944;5.382;2023-01-19T09:13:41;24.95;;;10.00;;
43650;SDS011;29247;50.944;5.382;2023-01-19T09:16:07;25.30;;;10.80;;
43650;SDS011;29247;50.944;5.382;2023-01-19T09:18:35;24.00;;;10.43;;
43650;SDS011;29247;50.944;5.382;2023-01-19T09:21:01;21.48;;;10.48;;
43650;SDS011;29247;50.944;5.382;2023-01-19T09:23:28;24.90;;;10.80;;
43650;SDS011;29247;50.944;5.382;2023-01-19T09:25:55;23.13;;;10.15;;
43650;SDS011;29247;50.944;5.382;2023-01-19T09:28:25;21.42;;;10.23;;
43650;SDS011;29247;50.944;5.382;2023-01-19T09:30:54;19.95;;;10.20;;
43650;SDS011;29247;50.944;5.382;2023-01-19T09:33:20;23.40;;;10.13;;
43650;SDS011;29247;50.944;5.382;2023-01-19T09:35:47;21.52;;;9.93;;
43650;SDS011;29247;50.944;5.382;2023-01-19T09:38:13;26.48;;;9.80;;
43650;SDS011;29247;50.944;5.382;2023-01-19T09:45:50;24.25;;;10.18;;
43650;SDS011;29247;50.944;5.382;2023-01-19T09:51:26;17.85;;;9.38;;
43650;SDS011;29247;50.944;5.382;2023-01-19T09:56:42;23.13;;;10.80;;
43650;SDS011;29247;50.944;5.382;2023-01-19T09:59:23;21.60;;;9.88;;
43650;SDS011;29247;50.944;5.382;2023-01-19T10:04:41;23.42;;;10.40;;
43650;SDS011;29247;50.944;5.382;2023-01-19T10:07:09;23.67;;;9.70;;
43650;SDS011;29247;50.944;5.382;2023-01-19T10:15:30;19.88;;;9.63;;
43650;SDS011;29247;50.944;5.382;2023-01-19T10:21:03;23.05;;;9.88;;
43650;SDS011;29247;50.944;5.382;2023-01-19T10:27:15;23.27;;;9.45;;
43650;SDS011;29247;50.944;5.382;2023-01-19T10:29:43;19.30;;;10.00;;
43650;SDS011;29247;50.944;5.382;2023-01-19T10:32:12;28.55;;;11.18;;
43650;SDS011;29247;50.944;5.382;2023-01-19T10:34:41;25.00;;;10.77;;
43650;SDS011;29247;50.944;5.382;2023-01-19T10:39:45;27.20;;;11.15;;
43650;SDS011;29247;50.944;5.382;2023-01-19T10:42:20;26.20;;;11.05;;
43650;SDS011;29247;50.944;5.382;2023-01-19T10:44:46;28.85;;;11.88;;
43650;SDS011;29247;50.944;5.382;2023-01-19T10:47:16;18.60;;;10.43;;
43650;SDS011;29247;50.944;5.382;2023-01-19T10:49:44;20.80;;;9.98;;
43650;SDS011;29247;50.944;5.382;2023-01-19T10:55:00;22.10;;;10.55;;
43650;SDS011;29247;50.944;5.382;2023-01-19T10:57:35;25.45;;;11.50;;
43650;SDS011;29247;50.944;5.382;2023-01-19T11:02:57;21.60;;;10.38;;
43650;SDS011;29247;50.944;5.382;2023-01-19T11:05:28;23.65;;;11.75;;
43650;SDS011;29247;50.944;5.382;2023-01-19T11:07:56;23.90;;;10.02;;
43650;SDS011;29247;50.944;5.382;2023-01-19T11:10:26;22.58;;;9.85;;
43650;SDS011;29247;50.944;5.382;2023-01-19T11:13:00;22.23;;;10.43;;
43650;SDS011;29247;50.944;5.382;2023-01-19T11:15:40;26.23;;;10.27;;
43650;SDS011;29247;50.944;5.382;2023-01-19T11:20:55;24.13;;;9.95;;
43650;SDS011;29247;50.944;5.382;2023-01-19T11:26:01;21.90;;;9.95;;
43650;SDS011;29247;50.944;5.382;2023-01-19T11:31:47;25.38;;;10.90;;
43650;SDS011;29247;50.944;5.382;2023-01-19T11:36:31;23.27;;;10.70;;
43650;SDS011;29247;50.944;5.382;2023-01-19T11:39:20;26.83;;;9.70;;
43650;SDS011;29247;50.944;5.382;2023-01-19T11:46:57;22.65;;;9.45;;
43650;SDS011;29247;50.944;5.382;2023-01-19T11:52:08;19.35;;;9.85;;
43650;SDS011;29247;50.944;5.382;2023-01-19T11:57:52;19.92;;;9.18;;
43650;SDS011;29247;50.944;5.382;2023-01-19T12:08:17;20.52;;;8.63;;
43650;SDS011;29247;50.944;5.382;2023-01-19T12:10:47;16.98;;;7.68;;
43650;SDS011;29247;50.944;5.382;2023-01-19T12:13:20;18.15;;;8.88;;
43650;SDS011;29247;50.944;5.382;2023-01-19T12:15:49;22.90;;;8.52;;
43650;SDS011;29247;50.944;5.382;2023-01-19T12:18:24;19.27;;;8.55;;
43650;SDS011;29247;50.944;5.382;2023-01-19T12:20:54;19.08;;;8.73;;
43650;SDS011;29247;50.944;5.382;2023-01-19T12:29:10;16.02;;;7.00;;
43650;SDS011;29247;50.944;5.382;2023-01-19T12:31:39;19.10;;;7.68;;
43650;SDS011;29247;50.944;5.382;2023-01-19T12:36:49;19.40;;;7.78;;
43650;SDS011;29247;50.944;5.382;2023-01-19T12:41:46;18.92;;;6.95;;
43650;SDS011;29247;50.944;5.382;2023-01-19T12:46:59;21.13;;;7.70;;
43650;SDS011;29247;50.944;5.382;2023-01-19T13:00:26;16.95;;;7.30;;
43650;SDS011;29247;50.944;5.382;2023-01-19T13:05:58;18.05;;;7.68;;
43650;SDS011;29247;50.944;5.382;2023-01-19T13:11:23;12.35;;;6.35;;
43650;SDS011;29247;50.944;5.382;2023-01-19T13:18:44;17.20;;;6.65;;
43650;SDS011;29247;50.944;5.382;2023-01-19T13:23:54;18.42;;;8.68;;
43650;SDS011;29247;50.944;5.382;2023-01-19T13:26:29;14.27;;;6.78;;
43650;SDS011;29247;50.944;5.382;2023-01-19T13:31:49;17.75;;;7.28;;
43650;SDS011;29247;50.944;5.382;2023-01-19T13:34:21;12.77;;;7.15;;
43650;SDS011;29247;50.944;5.382;2023-01-19T13:36:52;15.70;;;6.97;;
43650;SDS011;29247;50.944;5.382;2023-01-19T13:39:36;16.30;;;7.70;;
43650;SDS011;29247;50.944;5.382;2023-01-19T13:42:06;15.80;;;7.72;;
43650;SDS011;29247;50.944;5.382;2023-01-19T13:44:42;14.40;;;6.60;;
43650;SDS011;29247;50.944;5.382;2023-01-19T13:47:32;16.88;;;6.90;;
43650;SDS011;29247;50.944;5.382;2023-01-19T13:50:02;17.83;;;6.72;;
43650;SDS011;29247;50.944;5.382;2023-01-19T13:52:28;15.40;;;6.43;;
43650;SDS011;29247;50.944;5.382;2023-01-19T13:54:59;11.73;;;5.78;;
43650;SDS011;29247;50.944;5.382;2023-01-19T14:00:04;16.27;;;5.95;;
43650;SDS011;29247;50.944;5.382;2023-01-19T14:02:58;13.80;;;5.47;;
43650;SDS011;29247;50.944;5.382;2023-01-19T14:05:25;8.70;;;5.22;;
43650;SDS011;29247;50.944;5.382;2023-01-19T14:10:47;10.57;;;4.53;;
43650;SDS011;29247;50.944;5.382;2023-01-19T14:13:29;11.85;;;4.75;;
43650;SDS011;29247;50.944;5.382;2023-01-19T14:15:58;7.10;;;4.35;;
43650;SDS011;29247;50.944;5.382;2023-01-19T14:18:57;7.65;;;4.18;;
43650;SDS011;29247;50.944;5.382;2023-01-19T14:21:35;10.18;;;4.50;;
43650;SDS011;29247;50.944;5.382;2023-01-19T14:24:13;10.15;;;4.30;;
43650;SDS011;29247;50.944;5.382;2023-01-19T14:31:47;7.55;;;4.20;;
43650;SDS011;29247;50.944;5.382;2023-01-19T14:37:00;11.00;;;5.13;;
43650;SDS011;29247;50.944;5.382;2023-01-19T14:41:58;7.35;;;4.53;;
43650;SDS011;29247;50.944;5.382;2023-01-19T14:44:31;9.25;;;3.95;;
43650;SDS011;29247;50.944;5.382;2023-01-19T14:47:02;9.30;;;4.47;;
43650;SDS011;29247;50.944;5.382;2023-01-19T14:49:47;10.63;;;4.38;;
43650;SDS011;29247;50.944;5.382;2023-01-19T14:52:18;7.55;;;4.30;;
43650;SDS011;29247;50.944;5.382;2023-01-19T14:54:48;8.85;;;4.15;;
43650;SDS011;29247;50.944;5.382;2023-01-19T14:57:17;8.88;;;4.07;;
43650;SDS011;29247;50.944;5.382;2023-01-19T14:59:42;10.00;;;3.60;;
43650;SDS011;29247;50.944;5.382;2023-01-19T15:02:12;10.93;;;4.05;;
43650;SDS011;29247;50.944;5.382;2023-01-19T15:04:38;8.00;;;4.20;;
43650;SDS011;29247;50.944;5.382;2023-01-19T15:07:09;9.23;;;5.10;;
43650;SDS011;29247;50.944;5.382;2023-01-19T15:09:44;10.75;;;5.22;;
43650;SDS011;29247;50.944;5.382;2023-01-19T15:12:11;12.05;;;4.70;;
43650;SDS011;29247;50.944;5.382;2023-01-19T15:14:42;10.23;;;3.97;;
43650;SDS011;29247;50.944;5.382;2023-01-19T15:17:12;9.80;;;4.38;;
43650;SDS011;29247;50.944;5.382;2023-01-19T15:19:44;10.48;;;4.97;;
43650;SDS011;29247;50.944;5.382;2023-01-19T15:22:10;12.35;;;5.28;;
43650;SDS011;29247;50.944;5.382;2023-01-19T15:24:39;7.75;;;4.32;;
43650;SDS011;29247;50.944;5.382;2023-01-19T15:27:10;20.48;;;5.38;;
43650;SDS011;29247;50.944;5.382;2023-01-19T15:29:38;15.05;;;5.10;;
43650;SDS011;29247;50.944;5.382;2023-01-19T15:32:04;9.68;;;4.63;;
43650;SDS011;29247;50.944;5.382;2023-01-19T15:34:30;12.68;;;5.05;;
43650;SDS011;29247;50.944;5.382;2023-01-19T15:36:56;8.10;;;4.32;;
43650;SDS011;29247;50.944;5.382;2023-01-19T15:39:26;10.57;;;4.38;;
43650;SDS011;29247;50.944;5.382;2023-01-19T15:41:52;8.07;;;4.25;;
43650;SDS011;29247;50.944;5.382;2023-01-19T15:44:18;7.75;;;4.28;;
43650;SDS011;29247;50.944;5.382;2023-01-19T15:46:43;10.35;;;4.63;;
43650;SDS011;29247;50.944;5.382;2023-01-19T15:49:09;14.90;;;4.30;;
43650;SDS011;29247;50.944;5.382;2023-01-19T15:51:37;9.88;;;4.78;;
43650;SDS011;29247;50.944;5.382;2023-01-19T15:54:03;14.65;;;5.13;;
43650;SDS011;29247;50.944;5.382;2023-01-19T15:56:36;9.95;;;4.97;;
43650;SDS011;29247;50.944;5.382;2023-01-19T15:59:02;10.63;;;4.97;;
43650;SDS011;29247;50.944;5.382;2023-01-19T16:01:28;10.60;;;4.75;;
43650;SDS011;29247;50.944;5.382;2023-01-19T16:03:59;10.68;;;6.25;;
43650;SDS011;29247;50.944;5.382;2023-01-19T16:06:26;10.68;;;5.57;;
43650;SDS011;29247;50.944;5.382;2023-01-19T16:08:55;11.02;;;5.60;;
43650;SDS011;29247;50.944;5.382;2023-01-19T16:11:26;9.57;;;4.75;;
43650;SDS011;29247;50.944;5.382;2023-01-19T16:13:53;8.07;;;4.50;;
43650;SDS011;29247;50.944;5.382;2023-01-19T16:16:20;12.48;;;5.32;;
43650;SDS011;29247;50.944;5.382;2023-01-19T16:18:47;12.15;;;5.03;;
43650;SDS011;29247;50.944;5.382;2023-01-19T16:21:14;9.88;;;5.32;;
43650;SDS011;29247;50.944;5.382;2023-01-19T16:23:42;10.13;;;4.40;;
43650;SDS011;29247;50.944;5.382;2023-01-19T16:26:31;10.07;;;4.47;;
43650;SDS011;29247;50.944;5.382;2023-01-19T16:29:04;12.68;;;4.85;;
43650;SDS011;29247;50.944;5.382;2023-01-19T16:31:35;13.65;;;5.78;;
43650;SDS011;29247;50.944;5.382;2023-01-19T16:34:02;8.98;;;4.72;;
43650;SDS011;29247;50.944;5.382;2023-01-19T16:36:32;9.73;;;5.78;;
43650;SDS011;29247;50.944;5.382;2023-01-19T16:39:00;12.32;;;5.53;;
43650;SDS011;29247;50.944;5.382;2023-01-19T16:41:34;13.57;;;5.97;;
43650;SDS011;29247;50.944;5.382;2023-01-19T16:44:00;11.17;;;5.53;;
43650;SDS011;29247;50.944;5.382;2023-01-19T16:46:30;14.52;;;5.50;;
43650;SDS011;29247;50.944;5.382;2023-01-19T16:49:00;13.93;;;6.47;;
43650;SDS011;29247;50.944;5.382;2023-01-19T16:51:28;13.70;;;6.15;;
43650;SDS011;29247;50.944;5.382;2023-01-19T16:53:54;12.25;;;6.15;;
43650;SDS011;29247;50.944;5.382;2023-01-19T16:56:20;10.68;;;5.35;;
43650;SDS011;29247;50.944;5.382;2023-01-19T16:58:47;11.88;;;5.55;;
43650;SDS011;29247;50.944;5.382;2023-01-19T17:01:13;12.00;;;5.95;;
43650;SDS011;29247;50.944;5.382;2023-01-19T17:03:43;14.15;;;5.78;;
43650;SDS011;29247;50.944;5.382;2023-01-19T17:06:12;10.18;;;5.40;;
43650;SDS011;29247;50.944;5.382;2023-01-19T17:08:42;11.18;;;5.10;;
43650;SDS011;29247;50.944;5.382;2023-01-19T17:11:08;16.15;;;5.75;;
43650;SDS011;29247;50.944;5.382;2023-01-19T17:13:46;10.95;;;5.03;;
43650;SDS011;29247;50.944;5.382;2023-01-19T17:16:16;14.60;;;6.28;;
43650;SDS011;29247;50.944;5.382;2023-01-19T17:18:42;11.65;;;5.63;;
43650;SDS011;29247;50.944;5.382;2023-01-19T17:21:08;12.85;;;5.88;;